createdAt,value
2017-10-14T00:00:34.317Z,69.21
2017-10-14T00:03:01.812Z,68.21
2017-10-14T00:05:29.282Z,67.96
2017-10-14T00:07:56.758Z,67.74
2017-10-14T00:10:24.236Z,67.41
2017-10-14T00:12:51.808Z,67.77
2017-10-14T00:15:19.296Z,67.30
2017-10-14T00:17:46.785Z,67.74
2017-10-14T00:20:14.257Z,67.46
2017-10-14T00:22:41.736Z,67.47
2017-10-14T00:25:09.196Z,67.37
2017-10-14T00:27:36.676Z,67.38
2017-10-14T00:30:04.135Z,67.34
2017-10-14T00:32:31.664Z,67.30
2017-10-14T00:34:59.134Z,67.47
2017-10-14T00:37:26.609Z,67.28
2017-10-14T00:39:54.093Z,67.35
2017-10-14T00:42:21.622Z,68.05
2017-10-14T00:44:49.089Z,67.37
2017-10-14T00:47:16.569Z,66.97
2017-10-14T00:49:44.027Z,66.91
2017-10-14T00:52:11.501Z,66.99
2017-10-14T00:54:38.985Z,67.20
2017-10-14T00:57:06.496Z,67.74
2017-10-14T00:59:33.970Z,68.03
2017-10-14T01:02:01.455Z,67.88
2017-10-14T01:04:28.931Z,68.01
2017-10-14T01:06:56.383Z,67.94
2017-10-14T01:09:23.886Z,68.00
2017-10-14T01:11:51.356Z,67.96
2017-10-14T01:14:18.845Z,68.22
2017-10-14T01:16:46.299Z,68.87
2017-10-14T01:19:13.756Z,68.89
2017-10-14T01:21:41.222Z,68.98
2017-10-14T01:24:08.704Z,69.08
2017-10-14T01:26:36.157Z,68.92
2017-10-14T01:29:03.641Z,69.35
2017-10-14T01:31:31.136Z,69.48
2017-10-14T01:33:58.686Z,69.21
2017-10-14T01:36:26.224Z,69.02
2017-10-14T01:38:53.730Z,69.08
2017-10-14T01:41:21.203Z,69.58
2017-10-14T01:43:48.680Z,69.79
2017-10-14T01:46:16.189Z,69.88
2017-10-14T01:48:43.659Z,70.07
2017-10-14T01:51:11.124Z,70.37
2017-10-14T01:53:38.601Z,70.19
2017-10-14T01:56:06.444Z,70.72
2017-10-14T01:58:33.936Z,71.28
2017-10-14T02:01:01.418Z,71.65
2017-10-14T02:03:28.890Z,71.63
2017-10-14T02:05:56.344Z,71.77
2017-10-14T02:08:23.827Z,71.46
2017-10-14T02:10:51.301Z,71.41
2017-10-14T02:13:18.757Z,71.41
2017-10-14T02:15:46.226Z,71.08
2017-10-14T02:18:13.704Z,71.02
2017-10-14T02:20:41.168Z,70.57
2017-10-14T02:23:08.685Z,70.58
2017-10-14T02:25:36.151Z,70.06
2017-10-14T02:28:03.625Z,70.13
2017-10-14T02:30:31.090Z,71.36
2017-10-14T02:32:58.541Z,72.06
2017-10-14T02:35:26.001Z,72.67
2017-10-14T02:37:53.472Z,72.81
2017-10-14T02:40:20.966Z,73.20
2017-10-14T02:42:48.518Z,73.27
2017-10-14T02:45:16.014Z,73.18
2017-10-14T02:47:43.503Z,73.71
2017-10-14T02:50:10.991Z,73.75
2017-10-14T02:52:38.519Z,74.25
2017-10-14T02:55:06.025Z,73.87
2017-10-14T02:57:33.536Z,74.35
2017-10-14T03:00:01.040Z,74.72
2017-10-14T03:02:28.502Z,74.62
2017-10-14T03:07:29.805Z,75.20
2017-10-14T03:09:57.262Z,75.42
2017-10-14T03:12:25.386Z,75.67
2017-10-14T03:14:53.604Z,76.07
2017-10-14T03:17:21.067Z,76.39
2017-10-14T03:19:48.534Z,76.71
2017-10-14T03:22:16.039Z,76.91
2017-10-14T03:24:43.498Z,77.28
2017-10-14T03:27:10.974Z,77.70
2017-10-14T03:29:38.498Z,77.71
2017-10-14T03:32:05.976Z,77.22
2017-10-14T03:34:33.447Z,77.10
2017-10-14T03:37:00.932Z,76.94
2017-10-14T03:39:28.397Z,76.89
2017-10-14T03:41:55.857Z,76.84
2017-10-14T03:44:23.345Z,76.50
2017-10-14T03:46:50.823Z,76.40
2017-10-14T03:49:18.306Z,76.57
2017-10-14T03:51:45.817Z,76.23
2017-10-14T03:54:13.294Z,76.16
2017-10-14T03:56:40.759Z,76.48
2017-10-14T03:59:08.261Z,76.48
2017-10-14T04:01:35.759Z,76.70
2017-10-14T04:04:03.245Z,76.51
2017-10-14T04:06:30.749Z,76.59
2017-10-14T04:08:58.221Z,76.41
2017-10-14T04:11:25.700Z,76.35
2017-10-14T04:13:53.170Z,76.43
2017-10-14T04:16:20.640Z,76.49
2017-10-14T04:18:48.609Z,76.55
2017-10-14T04:21:16.113Z,76.41
2017-10-14T04:23:43.580Z,76.48
2017-10-14T04:26:11.041Z,76.50
2017-10-14T04:28:38.533Z,76.83
2017-10-14T04:31:06.011Z,76.99
2017-10-14T04:33:33.490Z,77.23
2017-10-14T04:36:00.987Z,77.50
2017-10-14T04:38:28.451Z,77.96
2017-10-14T04:40:55.930Z,78.18
2017-10-14T04:43:23.424Z,78.40
2017-10-14T04:45:50.910Z,79.15
2017-10-14T04:48:18.415Z,79.30
2017-10-14T04:50:45.907Z,79.85
2017-10-14T04:53:13.370Z,80.15
2017-10-14T04:55:40.842Z,80.05
2017-10-14T04:58:08.348Z,79.91
2017-10-14T05:00:35.808Z,80.38
2017-10-14T05:03:03.315Z,80.68
2017-10-14T05:05:30.896Z,80.70
2017-10-14T05:07:58.375Z,80.74
2017-10-14T05:10:25.851Z,80.71
2017-10-14T05:12:53.687Z,80.53
2017-10-14T05:15:21.158Z,79.65
2017-10-14T05:17:48.634Z,79.18
2017-10-14T05:20:16.131Z,79.01
2017-10-14T05:22:43.588Z,79.20
2017-10-14T05:25:11.057Z,79.18
2017-10-14T05:27:38.537Z,78.89
2017-10-14T05:30:06.030Z,77.97
2017-10-14T05:32:33.512Z,77.74
2017-10-14T05:35:01.026Z,77.55
2017-10-14T05:37:28.626Z,77.20
2017-10-14T05:39:56.111Z,77.04
2017-10-14T05:42:23.587Z,76.87
2017-10-14T05:44:51.069Z,76.90
2017-10-14T05:47:18.547Z,77.02
2017-10-14T05:49:46.037Z,76.89
2017-10-14T05:52:13.522Z,76.95
2017-10-14T05:54:40.988Z,76.92
2017-10-14T05:57:08.484Z,76.81
2017-10-14T05:59:35.964Z,76.63
2017-10-14T06:02:03.470Z,76.56
2017-10-14T06:04:31.021Z,76.50
2017-10-14T06:06:58.490Z,76.34
2017-10-14T06:09:25.976Z,76.19
2017-10-14T06:11:53.459Z,75.77
2017-10-14T06:14:20.925Z,75.49
2017-10-14T06:16:48.841Z,75.40
2017-10-14T06:19:17.190Z,74.93
2017-10-14T06:21:44.679Z,74.57
2017-10-14T06:24:12.166Z,74.15
2017-10-14T06:26:39.693Z,73.75
2017-10-14T06:29:07.157Z,73.31
2017-10-14T06:31:34.654Z,72.95
2017-10-14T06:34:02.218Z,72.44
2017-10-14T06:36:29.704Z,72.24
2017-10-14T06:38:57.177Z,71.95
2017-10-14T06:41:24.705Z,71.34
2017-10-14T06:43:52.186Z,70.77
2017-10-14T06:46:19.679Z,69.92
2017-10-14T06:48:47.249Z,69.51
2017-10-14T06:51:14.777Z,68.89
2017-10-14T06:53:42.272Z,67.57
2017-10-14T06:56:09.777Z,67.21
2017-10-14T06:58:37.239Z,66.93
2017-10-14T07:01:04.712Z,65.98
2017-10-14T07:03:32.219Z,65.37
2017-10-14T07:05:59.700Z,64.82
2017-10-14T07:08:27.170Z,64.50
2017-10-14T07:10:54.656Z,64.21
2017-10-14T07:13:22.119Z,64.33
2017-10-14T07:15:49.602Z,64.12
2017-10-14T07:18:17.106Z,63.75
2017-10-14T07:20:44.623Z,62.88
2017-10-14T07:23:12.162Z,63.04
2017-10-14T07:25:39.638Z,62.85
2017-10-14T07:28:07.090Z,62.69
2017-10-14T07:30:34.563Z,62.77
2017-10-14T07:33:02.066Z,62.35
2017-10-14T07:35:29.540Z,62.63
2017-10-14T07:37:57.010Z,62.04
2017-10-14T07:40:24.511Z,61.91
2017-10-14T07:42:52.020Z,61.38
2017-10-14T07:45:19.497Z,61.57
2017-10-14T07:47:46.981Z,61.39
2017-10-14T07:50:14.490Z,60.49
2017-10-14T07:52:41.939Z,60.73
2017-10-14T07:55:09.417Z,60.52
2017-10-14T07:57:36.879Z,60.15
2017-10-14T08:00:04.373Z,59.62
2017-10-14T08:02:31.909Z,59.48
2017-10-14T08:04:59.416Z,59.19
2017-10-14T08:07:26.893Z,58.74
2017-10-14T08:09:54.415Z,58.72
2017-10-14T08:12:21.885Z,57.84
2017-10-14T08:14:49.356Z,57.65
2017-10-14T08:17:16.858Z,57.54
2017-10-14T08:19:44.350Z,57.38
2017-10-14T08:22:11.858Z,56.69
2017-10-14T08:24:39.412Z,56.94
2017-10-14T08:27:06.912Z,56.69
2017-10-14T08:29:34.475Z,56.64
2017-10-14T08:32:01.999Z,56.43
2017-10-14T08:34:29.536Z,56.62
2017-10-14T08:36:57.002Z,56.02
2017-10-14T08:39:24.489Z,56.30
2017-10-14T08:41:51.957Z,55.81
2017-10-14T08:44:19.550Z,55.34
2017-10-14T08:46:47.030Z,55.38
2017-10-14T08:49:14.504Z,55.23
2017-10-14T08:51:42.010Z,55.00
2017-10-14T08:54:09.483Z,54.81
2017-10-14T08:56:36.975Z,54.84
2017-10-14T08:59:04.535Z,54.42
2017-10-14T09:01:32.040Z,54.12
2017-10-14T09:03:59.526Z,53.65
2017-10-14T09:06:27.020Z,52.99
2017-10-14T09:08:54.504Z,53.30
2017-10-14T09:11:21.979Z,53.54
2017-10-14T09:13:49.452Z,52.70
2017-10-14T09:16:16.919Z,52.71
2017-10-14T09:18:44.412Z,53.29
2017-10-14T09:21:11.891Z,53.14
2017-10-14T09:23:39.364Z,52.70
2017-10-14T09:26:06.853Z,52.97
2017-10-14T09:28:34.346Z,52.47
2017-10-14T09:31:01.844Z,52.65
2017-10-14T09:33:29.595Z,52.08
2017-10-14T09:35:57.065Z,51.63
2017-10-14T09:38:24.536Z,51.24
2017-10-14T09:40:52.097Z,51.40
2017-10-14T09:43:19.570Z,51.46
2017-10-14T09:45:47.143Z,51.38
2017-10-14T09:48:14.632Z,51.33
2017-10-14T09:50:42.117Z,52.41
2017-10-14T09:53:09.617Z,52.52
2017-10-14T09:55:37.076Z,52.33
2017-10-14T09:58:04.540Z,51.23
2017-10-14T10:00:32.113Z,51.86
2017-10-14T10:02:59.576Z,52.42
2017-10-14T10:05:27.035Z,52.06
2017-10-14T10:07:54.522Z,52.85
2017-10-14T10:10:21.990Z,52.10
2017-10-14T10:12:49.478Z,52.22
2017-10-14T10:15:16.981Z,52.49
2017-10-14T10:17:44.464Z,52.31
2017-10-14T10:20:11.934Z,52.76
2017-10-14T10:22:39.421Z,52.48
2017-10-14T10:25:06.950Z,52.62
2017-10-14T10:27:34.423Z,52.77
2017-10-14T10:30:01.902Z,52.73
2017-10-14T10:32:29.389Z,51.35
2017-10-14T10:34:56.895Z,51.30
2017-10-14T10:37:24.399Z,51.22
2017-10-14T10:39:51.873Z,51.19
2017-10-14T10:42:19.337Z,50.99
2017-10-14T10:44:46.842Z,51.77
2017-10-14T10:47:14.297Z,51.22
2017-10-14T10:49:41.757Z,51.12
2017-10-14T10:52:09.267Z,51.11
2017-10-14T10:54:36.750Z,50.70
2017-10-14T10:57:04.274Z,49.92
2017-10-14T10:59:31.749Z,50.04
2017-10-14T11:01:59.281Z,48.80
2017-10-14T11:04:26.813Z,48.71
2017-10-14T11:06:54.289Z,48.77
2017-10-14T11:09:21.773Z,48.68
2017-10-14T11:11:50.166Z,48.15
2017-10-14T11:14:17.642Z,47.99
2017-10-14T11:16:45.132Z,47.64
2017-10-14T11:19:12.593Z,47.49
2017-10-14T11:21:40.084Z,48.05
2017-10-14T11:24:08.462Z,48.01
2017-10-14T11:26:35.921Z,47.35
2017-10-14T11:29:03.413Z,47.62
2017-10-14T11:31:30.889Z,47.54
2017-10-14T11:33:58.381Z,46.70
2017-10-14T11:36:25.885Z,46.84
2017-10-14T11:38:53.348Z,46.63
2017-10-14T11:41:20.833Z,45.30
2017-10-14T11:43:48.319Z,45.55
2017-10-14T11:46:15.775Z,45.36
2017-10-14T11:48:43.241Z,45.62
2017-10-14T11:51:10.756Z,45.33
2017-10-14T11:53:38.250Z,45.83
2017-10-14T11:56:05.783Z,46.05
2017-10-14T11:58:33.281Z,46.29
2017-10-14T12:01:00.756Z,46.03
2017-10-14T12:03:28.212Z,45.98
2017-10-14T12:05:55.706Z,45.58
2017-10-14T12:08:23.233Z,45.56
2017-10-14T12:10:50.715Z,45.06
2017-10-14T12:13:18.221Z,45.42
2017-10-14T12:15:45.737Z,45.66
2017-10-14T12:18:13.206Z,45.53
2017-10-14T12:20:40.686Z,45.10
2017-10-14T12:23:08.203Z,45.21
2017-10-14T12:25:35.662Z,45.05
2017-10-14T12:28:03.148Z,45.04
2017-10-14T12:30:30.667Z,45.06
2017-10-14T12:32:58.156Z,44.82
2017-10-14T12:35:25.636Z,45.33
2017-10-14T12:37:53.101Z,45.51
2017-10-14T12:40:20.586Z,44.80
2017-10-14T12:42:48.081Z,44.72
2017-10-14T12:45:15.567Z,44.62
2017-10-14T12:47:43.039Z,44.02
2017-10-14T12:50:10.533Z,44.05
2017-10-14T12:52:38.024Z,44.98
2017-10-14T12:55:05.484Z,44.85
2017-10-14T12:57:32.974Z,44.39
2017-10-14T13:00:00.445Z,44.26
2017-10-14T13:02:27.920Z,44.24
2017-10-14T13:04:55.613Z,44.14
2017-10-14T13:07:23.065Z,44.39
2017-10-14T13:09:50.536Z,44.38
2017-10-14T13:12:18.102Z,43.85
2017-10-14T13:14:45.585Z,43.93
2017-10-14T13:17:13.084Z,43.94
2017-10-14T13:19:40.578Z,43.88
2017-10-14T13:22:08.043Z,43.74
2017-10-14T13:24:35.509Z,43.63
2017-10-14T13:27:03.001Z,43.47
2017-10-14T13:29:30.506Z,43.10
2017-10-14T13:31:57.981Z,43.17
2017-10-14T13:34:25.470Z,43.58
2017-10-14T13:36:52.936Z,43.26
2017-10-14T13:39:20.410Z,43.00
2017-10-14T13:41:47.953Z,43.35
2017-10-14T13:44:15.439Z,43.08
2017-10-14T13:46:42.909Z,43.18
2017-10-14T13:49:10.380Z,43.33
2017-10-14T13:51:37.852Z,43.22
2017-10-14T13:54:05.312Z,42.15
2017-10-14T13:56:32.783Z,40.81
2017-10-14T13:59:00.241Z,39.86
2017-10-14T14:01:27.723Z,38.57
2017-10-14T14:03:55.262Z,37.36
2017-10-14T14:06:22.728Z,36.63
2017-10-14T14:08:50.250Z,36.50
2017-10-14T14:11:17.721Z,36.37
2017-10-14T14:13:45.211Z,36.56
2017-10-14T14:16:12.678Z,36.37
2017-10-14T14:18:40.158Z,35.02
2017-10-14T14:21:07.661Z,35.60
2017-10-14T14:23:35.148Z,35.76
2017-10-14T14:26:02.773Z,36.41
2017-10-14T14:28:30.256Z,35.52
2017-10-14T14:30:57.785Z,35.84
2017-10-14T14:33:25.271Z,36.10
2017-10-14T14:35:52.751Z,36.44
2017-10-14T14:38:20.216Z,35.51
2017-10-14T14:40:47.707Z,35.39
2017-10-14T14:43:15.210Z,34.31
2017-10-14T14:45:42.677Z,34.02
2017-10-14T14:48:10.166Z,34.68
2017-10-14T14:50:37.659Z,34.13
2017-10-14T14:53:05.145Z,33.88
2017-10-14T14:55:32.634Z,33.71
2017-10-14T14:58:00.095Z,33.36
2017-10-14T15:00:27.564Z,33.80
2017-10-14T15:02:55.065Z,34.52
2017-10-14T15:05:22.546Z,35.35
2017-10-14T15:07:50.009Z,35.28
2017-10-14T15:10:17.500Z,34.60
2017-10-14T15:12:44.958Z,36.25
2017-10-14T15:15:12.459Z,36.94
2017-10-14T15:17:39.962Z,36.43
2017-10-14T15:20:07.439Z,36.45
2017-10-14T15:22:34.960Z,36.38
2017-10-14T15:25:02.433Z,37.18
2017-10-14T15:27:29.919Z,37.57
2017-10-14T15:29:57.375Z,37.92
2017-10-14T15:32:25.481Z,38.66
2017-10-14T15:34:52.998Z,38.60
2017-10-14T15:37:20.474Z,39.21
2017-10-14T15:39:47.961Z,40.27
2017-10-14T15:42:15.417Z,41.51
2017-10-14T15:44:42.905Z,43.06
2017-10-14T15:47:10.415Z,44.00
2017-10-14T15:49:37.878Z,45.44
2017-10-14T15:52:05.354Z,46.70
2017-10-14T15:54:32.867Z,47.59
2017-10-14T15:57:00.343Z,48.48
2017-10-14T15:59:27.827Z,49.17
2017-10-14T16:01:55.318Z,49.56
2017-10-14T16:04:22.789Z,50.00
2017-10-14T16:06:50.301Z,50.61
2017-10-14T16:09:17.788Z,51.53
2017-10-14T16:11:45.291Z,51.71
2017-10-14T16:14:12.754Z,51.93
2017-10-14T16:16:40.229Z,52.81
2017-10-14T16:19:07.690Z,53.38
2017-10-14T16:21:35.171Z,53.80
2017-10-14T16:24:02.871Z,54.41
2017-10-14T16:26:30.335Z,54.62
2017-10-14T16:28:57.793Z,55.17
2017-10-14T16:31:25.265Z,55.48
2017-10-14T16:33:52.752Z,56.17
2017-10-14T16:36:20.235Z,56.37
2017-10-14T16:38:47.713Z,56.44
2017-10-14T16:41:15.165Z,56.96
2017-10-14T16:43:42.635Z,57.58
2017-10-14T16:46:10.112Z,58.04
2017-10-14T16:48:37.589Z,58.39
2017-10-14T16:51:05.461Z,58.87
2017-10-14T16:53:32.936Z,59.12
2017-10-14T16:56:00.417Z,59.21
2017-10-14T16:58:27.915Z,59.77
2017-10-14T17:00:55.392Z,59.76
2017-10-14T17:03:22.910Z,60.23
2017-10-14T17:05:50.368Z,60.20
2017-10-14T17:08:17.893Z,60.26
2017-10-14T17:10:45.406Z,60.15
2017-10-14T17:13:12.901Z,61.00
2017-10-14T17:15:41.386Z,61.53
2017-10-14T17:18:08.865Z,62.38
2017-10-14T17:20:36.324Z,62.57
2017-10-14T17:23:03.825Z,62.99
2017-10-14T17:25:31.297Z,63.38
2017-10-14T17:27:58.777Z,63.21
2017-10-14T17:30:26.319Z,63.59
2017-10-14T17:32:53.945Z,63.99
2017-10-14T17:35:21.437Z,64.93
2017-10-14T17:37:48.923Z,65.73
2017-10-14T17:40:16.389Z,66.04
2017-10-14T17:42:43.852Z,66.32
2017-10-14T17:45:12.682Z,66.24
2017-10-14T17:47:40.146Z,66.17
2017-10-14T17:50:07.617Z,66.30
2017-10-14T17:52:35.121Z,66.73
2017-10-14T17:55:02.606Z,67.11
2017-10-14T17:57:30.090Z,67.79
2017-10-14T17:59:57.568Z,68.17
2017-10-14T18:02:25.061Z,68.53
2017-10-14T18:04:52.606Z,69.09
2017-10-14T18:07:20.116Z,69.41
2017-10-14T18:09:47.578Z,69.66
2017-10-14T18:12:15.081Z,69.88
2017-10-14T18:14:42.592Z,70.16
2017-10-14T18:17:10.049Z,70.52
2017-10-14T18:19:37.550Z,70.98
2017-10-14T18:22:06.356Z,71.49
2017-10-14T18:24:33.847Z,71.87
2017-10-14T18:27:01.345Z,72.12
2017-10-14T18:29:28.848Z,72.18
2017-10-14T18:31:56.326Z,72.58
2017-10-14T18:34:23.804Z,73.04
2017-10-14T18:36:51.311Z,73.02
2017-10-14T18:39:18.808Z,73.65
2017-10-14T18:41:46.305Z,73.93
2017-10-14T18:44:13.817Z,74.25
2017-10-14T18:46:41.348Z,74.42
2017-10-14T18:49:08.816Z,74.85
2017-10-14T18:51:36.316Z,75.01
2017-10-14T18:54:03.794Z,75.07
2017-10-14T18:56:31.303Z,75.24
2017-10-14T18:58:58.796Z,75.47
2017-10-14T19:01:26.302Z,75.84
2017-10-14T19:03:53.780Z,76.21
2017-10-14T19:06:21.353Z,76.39
2017-10-14T19:08:48.848Z,76.90
2017-10-14T19:11:16.364Z,77.05
2017-10-14T19:13:43.902Z,77.30
2017-10-14T19:16:11.393Z,77.52
2017-10-14T19:18:38.895Z,77.47
2017-10-14T19:21:06.407Z,77.43
2017-10-14T19:23:33.894Z,77.27
2017-10-14T19:26:01.371Z,77.39
2017-10-14T19:28:28.960Z,77.65
2017-10-14T19:31:00.179Z,77.78
2017-10-14T19:33:27.732Z,77.58
2017-10-14T19:35:55.227Z,77.82
2017-10-14T19:38:22.717Z,77.99
2017-10-14T19:40:50.188Z,78.20
2017-10-14T19:43:18.718Z,78.37
2017-10-14T19:45:46.213Z,78.80
2017-10-14T19:48:13.705Z,78.92
2017-10-14T19:50:41.178Z,78.60
2017-10-14T19:53:08.662Z,78.71
2017-10-14T19:55:36.188Z,78.90
2017-10-14T19:58:03.682Z,78.84
2017-10-14T20:00:34.051Z,79.03
2017-10-14T20:03:01.527Z,79.41
2017-10-14T20:05:29.016Z,79.64
2017-10-14T20:07:56.484Z,79.77
2017-10-14T20:10:24.003Z,79.92
2017-10-14T20:12:51.584Z,80.16
2017-10-14T20:15:19.063Z,80.08
2017-10-14T20:17:46.545Z,80.15
2017-10-14T20:20:14.045Z,80.34
2017-10-14T20:22:41.529Z,80.36
2017-10-14T20:25:09.007Z,80.40
2017-10-14T20:27:36.596Z,80.12
2017-10-14T20:30:04.188Z,80.02
2017-10-14T20:32:31.659Z,80.40
2017-10-14T20:34:59.150Z,80.50
2017-10-14T20:37:26.620Z,80.54
2017-10-14T20:39:54.093Z,80.62
2017-10-14T20:42:21.564Z,80.28
2017-10-14T20:44:49.041Z,80.17
2017-10-14T20:47:16.508Z,80.30
2017-10-14T20:49:44.008Z,80.30
2017-10-14T20:52:11.593Z,80.49
2017-10-14T20:54:39.063Z,80.48
2017-10-14T20:57:06.596Z,80.56
2017-10-14T20:59:34.071Z,80.49
2017-10-14T21:02:01.531Z,80.72
2017-10-14T21:04:29.046Z,80.75
2017-10-14T21:06:56.589Z,80.89
2017-10-14T21:09:24.058Z,81.15
2017-10-14T21:11:51.601Z,81.00
2017-10-14T21:14:19.077Z,81.00
2017-10-14T21:16:46.559Z,80.73
2017-10-14T21:19:14.035Z,80.97
2017-10-14T21:21:41.954Z,81.14
2017-10-14T21:24:09.420Z,81.25
2017-10-14T21:26:36.961Z,81.39
2017-10-14T21:29:04.425Z,81.59
2017-10-14T21:31:32.219Z,81.41
2017-10-14T21:33:59.962Z,81.53
2017-10-14T21:36:27.446Z,81.89
2017-10-14T21:38:54.934Z,81.84
2017-10-14T21:41:22.439Z,81.89
2017-10-14T21:43:49.923Z,81.83
2017-10-14T21:46:17.416Z,81.89
2017-10-14T21:48:45.007Z,81.79
2017-10-14T21:51:12.646Z,81.89
2017-10-14T21:53:40.119Z,82.23
2017-10-14T21:56:07.904Z,82.19
2017-10-14T21:58:35.378Z,82.37
2017-10-14T22:01:04.296Z,82.54
2017-10-14T22:03:31.843Z,82.68
2017-10-14T22:05:59.308Z,83.00
2017-10-14T22:08:26.782Z,82.67
2017-10-14T22:10:54.814Z,82.49
2017-10-14T22:13:22.295Z,82.45
2017-10-14T22:15:49.788Z,82.81
2017-10-14T22:18:17.273Z,83.18
2017-10-14T22:20:44.758Z,83.34
2017-10-14T22:23:12.235Z,83.41
2017-10-14T22:25:39.771Z,83.48
2017-10-14T22:28:07.267Z,83.51
2017-10-14T22:30:34.776Z,83.74
2017-10-14T22:33:02.245Z,83.80
2017-10-14T22:35:29.731Z,84.04
2017-10-14T22:37:57.192Z,84.03
2017-10-14T22:40:24.687Z,84.02
2017-10-14T22:42:52.174Z,84.01
2017-10-14T22:45:19.646Z,84.10
2017-10-14T22:47:47.136Z,84.19
2017-10-14T22:50:14.681Z,84.11
2017-10-14T22:52:42.190Z,84.11
2017-10-14T22:55:09.676Z,84.30
2017-10-14T22:57:37.153Z,84.35
2017-10-14T23:00:04.607Z,84.36
2017-10-14T23:02:32.082Z,84.50
2017-10-14T23:04:59.568Z,84.71
2017-10-14T23:07:27.027Z,84.77
2017-10-14T23:09:55.346Z,85.07
2017-10-14T23:12:22.817Z,85.24
2017-10-14T23:14:50.274Z,85.26
2017-10-14T23:17:17.860Z,85.24
2017-10-14T23:19:45.336Z,85.52
2017-10-14T23:22:12.811Z,85.63
2017-10-14T23:24:40.370Z,85.79
2017-10-14T23:27:07.848Z,86.04
2017-10-14T23:29:35.318Z,86.12
2017-10-14T23:32:03.031Z,86.11
2017-10-14T23:34:30.481Z,86.23
2017-10-14T23:36:57.945Z,86.42
2017-10-14T23:39:25.427Z,86.61
2017-10-14T23:41:52.889Z,86.51
2017-10-14T23:44:20.345Z,86.61
2017-10-14T23:46:47.819Z,86.18
2017-10-14T23:49:16.211Z,86.21
2017-10-14T23:51:43.681Z,86.35
2017-10-14T23:54:11.161Z,86.46
2017-10-14T23:56:38.646Z,86.78
2017-10-14T23:59:06.116Z,87.20
